createdAt,value
2018-12-24T00:01:29.722Z,2.70
2018-12-24T00:04:00.142Z,2.70
2018-12-24T00:06:30.292Z,2.60
2018-12-24T00:09:00.497Z,2.60
2018-12-24T00:11:30.956Z,2.60
2018-12-24T00:14:01.266Z,2.50
2018-12-24T00:16:31.585Z,2.50
2018-12-24T00:19:01.938Z,2.40
2018-12-24T00:21:32.407Z,2.40
2018-12-24T00:24:02.591Z,2.30
2018-12-24T00:26:32.839Z,2.30
2018-12-24T00:29:03.355Z,2.30
2018-12-24T00:31:33.733Z,2.30
2018-12-24T00:34:03.942Z,2.20
2018-12-24T00:36:34.314Z,2.10
2018-12-24T00:39:06.098Z,2.10
2018-12-24T00:41:36.391Z,2.00
2018-12-24T00:44:06.593Z,1.90
2018-12-24T00:46:36.845Z,1.90
2018-12-24T00:49:07.138Z,1.90
2018-12-24T00:51:37.305Z,1.80
2018-12-24T00:54:09.567Z,1.70
2018-12-24T00:56:39.751Z,1.60
2018-12-24T00:59:09.984Z,1.40
2018-12-24T01:01:40.180Z,1.40
2018-12-24T01:04:13.453Z,1.40
2018-12-24T01:06:43.758Z,1.40
2018-12-24T01:09:14.074Z,1.40
2018-12-24T01:11:44.376Z,1.40
2018-12-24T01:14:14.539Z,1.40
2018-12-24T01:16:44.955Z,1.30
2018-12-24T01:19:15.229Z,1.30
2018-12-24T01:21:45.427Z,1.30
2018-12-24T01:24:15.647Z,1.20
2018-12-24T01:26:45.984Z,1.20
2018-12-24T01:29:16.319Z,1.20
2018-12-24T01:31:46.627Z,1.20
2018-12-24T01:34:16.894Z,1.20
2018-12-24T01:36:47.147Z,1.20
2018-12-24T01:39:17.342Z,1.20
2018-12-24T01:41:50.037Z,1.20
2018-12-24T01:44:20.326Z,1.20
2018-12-24T01:46:50.477Z,1.20
2018-12-24T01:49:20.654Z,1.10
2018-12-24T01:51:50.845Z,1.10
2018-12-24T01:54:21.010Z,1.10
2018-12-24T01:56:51.207Z,1.20
2018-12-24T01:59:21.475Z,1.10
2018-12-24T02:01:51.750Z,1.20
2018-12-24T02:04:21.993Z,1.20
2018-12-24T02:06:52.334Z,1.10
2018-12-24T02:09:22.531Z,1.10
2018-12-24T02:11:52.919Z,1.10
2018-12-24T02:14:23.126Z,1.10
2018-12-24T02:16:53.398Z,1.10
2018-12-24T02:19:23.587Z,1.00
2018-12-24T02:21:53.810Z,1.00
2018-12-24T02:24:24.018Z,0.90
2018-12-24T02:26:54.237Z,0.90
2018-12-24T02:29:24.405Z,0.90
2018-12-24T02:31:54.605Z,0.90
2018-12-24T02:34:24.838Z,0.90
2018-12-24T02:36:55.178Z,0.90
2018-12-24T02:39:25.367Z,0.90
2018-12-24T02:41:55.567Z,0.90
2018-12-24T02:44:25.743Z,0.90
2018-12-24T02:46:55.950Z,0.90
2018-12-24T02:49:26.155Z,0.90
2018-12-24T02:51:56.454Z,0.80
2018-12-24T02:54:26.613Z,0.80
2018-12-24T02:56:56.912Z,0.80
2018-12-24T02:59:27.100Z,0.80
2018-12-24T03:01:57.374Z,0.90
2018-12-24T03:04:27.562Z,0.90
2018-12-24T03:06:57.755Z,0.90
2018-12-24T03:09:28.004Z,0.90
2018-12-24T03:11:58.291Z,0.90
2018-12-24T03:14:28.486Z,0.90
2018-12-24T03:16:58.810Z,0.90
2018-12-24T03:19:29.126Z,0.90
2018-12-24T03:21:59.341Z,0.90
2018-12-24T03:24:29.903Z,0.80
2018-12-24T03:27:00.075Z,0.90
2018-12-24T03:29:30.357Z,0.80
2018-12-24T03:32:00.609Z,0.90
2018-12-24T03:34:30.840Z,0.90
2018-12-24T03:37:01.070Z,0.90
2018-12-24T03:39:31.420Z,0.90
2018-12-24T03:42:01.695Z,0.80
2018-12-24T03:44:31.955Z,0.80
2018-12-24T03:47:02.208Z,0.70
2018-12-24T03:49:32.496Z,0.70
2018-12-24T03:52:02.700Z,0.80
2018-12-24T03:54:32.949Z,0.80
2018-12-24T03:57:03.210Z,0.80
2018-12-24T03:59:33.559Z,0.70
2018-12-24T04:02:03.751Z,0.80
2018-12-24T04:04:33.978Z,0.80
2018-12-24T04:07:04.245Z,0.80
2018-12-24T04:09:34.428Z,0.70
2018-12-24T04:12:05.178Z,0.70
2018-12-24T04:14:35.401Z,0.80
2018-12-24T04:17:05.166Z,0.80
2018-12-24T04:19:35.487Z,0.80
2018-12-24T04:22:05.662Z,0.80
2018-12-24T04:24:36.131Z,0.80
2018-12-24T04:27:06.409Z,0.70
2018-12-24T04:29:36.598Z,0.70
2018-12-24T04:32:06.830Z,0.80
2018-12-24T04:34:37.121Z,0.80
2018-12-24T04:37:07.358Z,0.80
2018-12-24T04:39:37.626Z,0.90
2018-12-24T04:42:07.907Z,0.80
2018-12-24T04:44:38.192Z,0.70
2018-12-24T04:47:08.351Z,0.70
2018-12-24T04:49:38.649Z,0.70
2018-12-24T04:52:08.889Z,0.80
2018-12-24T04:54:39.098Z,0.70
2018-12-24T04:57:09.246Z,0.70
2018-12-24T04:59:39.705Z,0.70
2018-12-24T05:02:09.966Z,0.80
2018-12-24T05:04:40.167Z,0.80
2018-12-24T05:07:10.385Z,0.80
2018-12-24T05:09:40.776Z,0.80
2018-12-24T05:12:10.945Z,0.90
2018-12-24T05:14:41.094Z,0.80
2018-12-24T05:17:11.279Z,0.80
2018-12-24T05:19:41.576Z,0.80
2018-12-24T05:22:11.882Z,0.80
2018-12-24T05:24:42.587Z,0.80
2018-12-24T05:27:12.843Z,0.90
2018-12-24T05:29:43.141Z,0.80
2018-12-24T05:32:13.393Z,0.90
2018-12-24T05:34:43.590Z,0.80
2018-12-24T05:37:13.750Z,0.90
2018-12-24T05:39:43.987Z,0.90
2018-12-24T05:42:14.159Z,0.90
2018-12-24T05:44:44.336Z,0.90
2018-12-24T05:47:14.576Z,0.90
2018-12-24T05:49:44.895Z,0.90
2018-12-24T05:52:15.110Z,0.90
2018-12-24T05:54:45.275Z,1.00
2018-12-24T05:57:15.465Z,1.00
2018-12-24T05:59:45.618Z,1.00
2018-12-24T06:02:15.784Z,0.90
2018-12-24T06:04:46.043Z,0.90
2018-12-24T06:07:16.191Z,0.90
2018-12-24T06:09:46.558Z,1.00
2018-12-24T06:12:16.720Z,1.00
2018-12-24T06:14:47.198Z,1.10
2018-12-24T06:17:17.539Z,1.10
2018-12-24T06:19:47.799Z,1.10
2018-12-24T06:22:18.065Z,1.10
2018-12-24T06:24:48.414Z,1.10
2018-12-24T06:27:18.665Z,1.10
2018-12-24T06:29:48.943Z,1.10
2018-12-24T06:32:19.418Z,1.10
2018-12-24T06:34:49.614Z,1.10
2018-12-24T06:37:19.817Z,1.20
2018-12-24T06:39:50.037Z,1.20
2018-12-24T06:42:20.191Z,1.20
2018-12-24T06:44:50.494Z,1.20
2018-12-24T06:47:20.698Z,1.20
2018-12-24T06:49:50.942Z,1.30
2018-12-24T06:52:21.138Z,1.20
2018-12-24T06:54:51.324Z,1.20
2018-12-24T06:57:21.533Z,1.20
2018-12-24T06:59:51.752Z,1.30
2018-12-24T07:02:22.085Z,1.20
2018-12-24T07:04:52.285Z,1.30
2018-12-24T07:07:22.463Z,1.30
2018-12-24T07:09:52.660Z,1.30
2018-12-24T07:12:22.872Z,1.30
2018-12-24T07:14:53.186Z,1.20
2018-12-24T07:17:23.453Z,1.20
2018-12-24T07:19:53.705Z,1.20
2018-12-24T07:22:24.042Z,1.20
2018-12-24T07:24:54.246Z,1.20
2018-12-24T07:27:24.526Z,1.20
2018-12-24T07:29:54.677Z,1.20
2018-12-24T07:32:24.906Z,1.20
2018-12-24T07:34:55.115Z,1.10
2018-12-24T07:37:25.309Z,1.20
2018-12-24T07:39:55.490Z,1.20
2018-12-24T07:42:26.005Z,1.10
2018-12-24T07:44:56.214Z,1.20
2018-12-24T07:47:26.419Z,1.10
2018-12-24T07:49:56.822Z,1.20
2018-12-24T07:52:27.090Z,1.10
2018-12-24T07:54:57.258Z,1.20
2018-12-24T07:57:27.482Z,1.20
2018-12-24T07:59:57.705Z,1.20
2018-12-24T08:02:27.877Z,1.20
2018-12-24T08:04:58.049Z,1.20
2018-12-24T08:07:28.256Z,1.30
2018-12-24T08:09:58.492Z,1.20
2018-12-24T08:12:28.685Z,1.30
2018-12-24T08:14:58.921Z,1.30
2018-12-24T08:17:29.170Z,1.30
2018-12-24T08:19:59.390Z,1.30
2018-12-24T08:22:29.630Z,1.20
2018-12-24T08:24:59.797Z,1.20
2018-12-24T08:27:29.993Z,1.30
2018-12-24T08:30:00.331Z,1.30
2018-12-24T08:32:30.577Z,1.30
2018-12-24T08:35:00.895Z,1.30
2018-12-24T08:37:31.201Z,1.30
2018-12-24T08:40:01.382Z,1.30
2018-12-24T08:42:31.634Z,1.30
2018-12-24T08:45:01.970Z,1.30
2018-12-24T08:47:32.391Z,1.30
2018-12-24T08:50:02.590Z,1.30
2018-12-24T08:52:32.953Z,1.20
2018-12-24T08:55:03.093Z,1.20
2018-12-24T08:57:33.669Z,1.20
2018-12-24T09:00:04.385Z,1.20
2018-12-24T09:02:35.047Z,1.20
2018-12-24T09:05:05.540Z,1.20
2018-12-24T09:07:35.879Z,1.20
2018-12-24T09:10:06.255Z,1.20
2018-12-24T09:12:36.450Z,1.20
2018-12-24T09:15:07.835Z,1.20
2018-12-24T09:17:38.075Z,1.20
2018-12-24T09:20:09.058Z,1.10
2018-12-24T09:22:39.409Z,1.20
2018-12-24T09:25:09.783Z,1.30
2018-12-24T09:27:40.012Z,1.50
2018-12-24T09:30:12.882Z,1.70
2018-12-24T09:32:43.147Z,1.70
2018-12-24T09:35:13.445Z,1.80
2018-12-24T09:37:43.921Z,1.80
2018-12-24T09:40:15.485Z,1.80
2018-12-24T09:42:45.858Z,1.70
2018-12-24T09:45:16.096Z,1.80
2018-12-24T09:47:46.414Z,1.70
2018-12-24T09:50:16.645Z,1.50
2018-12-24T09:52:46.996Z,1.50
2018-12-24T09:55:17.329Z,1.50
2018-12-24T09:57:47.807Z,1.50
2018-12-24T10:00:18.361Z,1.50
2018-12-24T10:02:59.543Z,1.50
2018-12-24T10:05:30.248Z,1.40
2018-12-24T10:08:03.600Z,1.40
2018-12-24T10:10:33.953Z,1.30
2018-12-24T10:13:04.093Z,1.30
2018-12-24T10:15:34.510Z,1.30
2018-12-24T10:18:04.732Z,1.30
2018-12-24T10:20:35.042Z,1.30
2018-12-24T10:23:05.395Z,1.30
2018-12-24T10:25:35.650Z,1.30
2018-12-24T10:28:06.000Z,1.30
2018-12-24T10:30:36.200Z,1.40
2018-12-24T10:33:06.494Z,1.40
2018-12-24T10:35:36.726Z,1.40
2018-12-24T10:38:06.919Z,1.40
2018-12-24T10:40:42.642Z,1.40
2018-12-24T10:43:12.825Z,1.30
2018-12-24T10:45:43.072Z,1.30
2018-12-24T10:48:13.270Z,1.40
2018-12-24T10:50:43.515Z,1.30
2018-12-24T10:53:13.710Z,1.30
2018-12-24T10:55:43.857Z,1.40
2018-12-24T10:58:14.527Z,1.40
2018-12-24T11:00:44.843Z,1.40
2018-12-24T11:03:15.147Z,1.30
2018-12-24T11:05:45.443Z,1.30
2018-12-24T11:08:15.630Z,1.30
2018-12-24T11:10:46.765Z,1.40
2018-12-24T11:13:17.199Z,1.40
2018-12-24T11:15:47.538Z,1.40
2018-12-24T11:18:17.786Z,1.40
2018-12-24T11:20:48.109Z,1.50
2018-12-24T11:23:18.342Z,1.50
2018-12-24T11:25:48.598Z,1.50
2018-12-24T11:28:18.801Z,1.50
2018-12-24T11:30:49.016Z,1.50
2018-12-24T11:33:19.314Z,1.50
2018-12-24T11:35:51.761Z,1.60
2018-12-24T11:38:22.467Z,1.50
2018-12-24T11:40:52.639Z,1.50
2018-12-24T11:43:22.858Z,1.40
2018-12-24T11:45:53.047Z,1.40
2018-12-24T11:48:23.367Z,1.40
2018-12-24T11:50:53.597Z,1.40
2018-12-24T11:53:23.765Z,1.40
2018-12-24T11:55:53.964Z,1.40
2018-12-24T11:58:24.221Z,1.40
2018-12-24T12:00:54.540Z,1.40
2018-12-24T12:03:24.874Z,1.50
2018-12-24T12:05:55.177Z,1.40
2018-12-24T12:08:25.559Z,1.40
2018-12-24T12:10:55.844Z,1.40
2018-12-24T12:13:26.149Z,1.40
2018-12-24T12:15:56.522Z,1.40
2018-12-24T12:18:26.746Z,1.40
2018-12-24T12:20:57.234Z,1.40
2018-12-24T12:23:27.522Z,1.40
2018-12-24T12:25:57.761Z,1.40
2018-12-24T12:28:28.103Z,1.40
2018-12-24T12:30:58.621Z,1.40
2018-12-24T12:33:28.981Z,1.40
2018-12-24T12:35:59.292Z,1.40
2018-12-24T12:38:29.969Z,1.40
2018-12-24T12:41:00.482Z,1.20
2018-12-24T12:43:30.758Z,1.20
2018-12-24T12:46:00.994Z,1.20
2018-12-24T12:48:31.271Z,1.30
2018-12-24T12:51:01.451Z,1.20
2018-12-24T12:53:31.790Z,1.20
2018-12-24T12:56:03.868Z,1.10
2018-12-24T12:58:33.947Z,1.10
2018-12-24T13:01:04.106Z,1.10
2018-12-24T13:03:34.422Z,1.00
2018-12-24T13:06:04.609Z,0.90
2018-12-24T13:08:34.901Z,0.80
2018-12-24T13:11:05.203Z,0.80
2018-12-24T13:13:36.942Z,0.70
2018-12-24T13:16:07.554Z,0.70
2018-12-24T13:18:37.735Z,0.70
2018-12-24T13:21:07.938Z,0.60
2018-12-24T13:23:38.186Z,0.50
2018-12-24T13:26:08.434Z,0.50
2018-12-24T13:28:38.735Z,0.50
2018-12-24T13:31:09.024Z,0.40
2018-12-24T13:33:39.502Z,0.40
2018-12-24T13:36:09.653Z,0.40
2018-12-24T13:38:41.012Z,0.40
2018-12-24T13:41:11.193Z,0.40
2018-12-24T13:43:41.606Z,0.40
2018-12-24T13:46:12.964Z,0.40
2018-12-24T13:48:43.166Z,0.40
2018-12-24T13:51:13.463Z,0.40
2018-12-24T13:53:45.090Z,0.40
2018-12-24T13:56:15.323Z,0.40
2018-12-24T13:58:45.726Z,0.40
2018-12-24T14:01:17.035Z,0.40
2018-12-24T14:03:47.257Z,0.40
2018-12-24T14:06:17.530Z,0.40
2018-12-24T14:08:47.933Z,0.30
2018-12-24T14:11:18.242Z,0.40
2018-12-24T14:13:48.615Z,0.30
2018-12-24T14:16:18.903Z,0.40
2018-12-24T14:18:49.217Z,0.30
2018-12-24T14:21:19.423Z,0.30
2018-12-24T14:23:49.673Z,0.40
2018-12-24T14:26:20.112Z,0.40
2018-12-24T14:28:50.335Z,0.40
2018-12-24T14:31:20.541Z,0.40
2018-12-24T14:33:50.714Z,0.40
2018-12-24T14:36:20.962Z,0.40
2018-12-24T14:38:51.156Z,0.40
2018-12-24T14:41:21.358Z,0.40
2018-12-24T14:43:51.697Z,0.40
2018-12-24T14:46:25.686Z,0.40
2018-12-24T14:48:54.078Z,0.40
2018-12-24T14:51:24.343Z,0.40
2018-12-24T14:53:54.584Z,0.30
2018-12-24T14:56:24.994Z,0.40
2018-12-24T14:58:55.226Z,0.40
2018-12-24T15:01:25.546Z,0.40
2018-12-24T15:03:55.757Z,0.40
2018-12-24T15:06:25.953Z,0.40
2018-12-24T15:08:56.208Z,0.40
2018-12-24T15:11:26.393Z,0.40
2018-12-24T15:13:56.604Z,0.40
2018-12-24T15:16:33.766Z,0.40
2018-12-24T15:18:58.658Z,0.40
2018-12-24T15:21:29.082Z,0.40
2018-12-24T15:23:59.274Z,0.40
2018-12-24T15:26:29.442Z,0.40
2018-12-24T15:29:01.390Z,0.50
2018-12-24T15:31:31.782Z,0.50
2018-12-24T15:34:02.041Z,0.50
2018-12-24T15:36:34.658Z,0.50
2018-12-24T15:39:06.731Z,0.50
2018-12-24T15:41:37.018Z,0.50
2018-12-24T15:44:07.233Z,0.50
2018-12-24T15:46:42.669Z,0.50
2018-12-24T15:49:09.348Z,0.50
2018-12-24T15:51:39.618Z,0.50
2018-12-24T15:54:13.222Z,0.60
2018-12-24T15:56:43.761Z,0.50
2018-12-24T15:59:14.051Z,0.50
2018-12-24T16:01:44.506Z,0.60
2018-12-24T16:04:14.693Z,0.50
2018-12-24T16:06:44.986Z,0.50
2018-12-24T16:09:15.170Z,0.50
2018-12-24T16:11:45.364Z,0.50
2018-12-24T16:14:16.621Z,0.50
2018-12-24T16:16:50.975Z,0.50
2018-12-24T16:19:18.718Z,0.40
2018-12-24T16:21:48.954Z,0.40
2018-12-24T16:24:19.213Z,0.40
2018-12-24T16:26:49.836Z,0.40
2018-12-24T16:29:20.087Z,0.30
2018-12-24T16:31:50.278Z,0.30
2018-12-24T16:34:20.535Z,0.30
2018-12-24T16:36:50.996Z,0.30
2018-12-24T16:39:21.149Z,0.30
2018-12-24T16:41:51.369Z,0.30
2018-12-24T16:44:21.571Z,0.30
2018-12-24T16:46:59.207Z,0.30
2018-12-24T16:49:23.723Z,0.30
2018-12-24T16:51:53.981Z,0.30
2018-12-24T16:54:24.263Z,0.40
2018-12-24T16:56:54.498Z,0.30
2018-12-24T16:59:24.795Z,0.30
2018-12-24T17:01:55.059Z,0.30
2018-12-24T17:04:25.370Z,0.30
2018-12-24T17:06:55.588Z,0.30
2018-12-24T17:09:25.951Z,0.30
2018-12-24T17:11:56.225Z,0.40
2018-12-24T17:14:26.480Z,0.50
2018-12-24T17:16:56.762Z,0.50
2018-12-24T17:19:27.927Z,0.50
2018-12-24T17:21:58.161Z,0.60
2018-12-24T17:24:28.381Z,0.60
2018-12-24T17:26:58.705Z,0.60
2018-12-24T17:29:28.913Z,0.60
2018-12-24T17:31:59.085Z,0.60
2018-12-24T17:34:29.261Z,0.60
2018-12-24T17:36:59.442Z,0.70
2018-12-24T17:39:29.827Z,0.70
2018-12-24T17:42:00.273Z,0.70
2018-12-24T17:44:30.552Z,0.70
2018-12-24T17:47:00.835Z,0.70
2018-12-24T17:49:31.134Z,0.70
2018-12-24T17:52:01.354Z,0.70
2018-12-24T17:54:31.542Z,0.80
2018-12-24T17:57:01.759Z,0.70
2018-12-24T17:59:31.969Z,0.70
2018-12-24T18:02:02.245Z,0.70
2018-12-24T18:04:33.591Z,0.70
2018-12-24T18:07:03.906Z,0.70
2018-12-24T18:09:34.106Z,0.70
2018-12-24T18:12:04.321Z,0.80
2018-12-24T18:14:34.549Z,0.80
2018-12-24T18:17:04.757Z,0.80
2018-12-24T18:19:34.934Z,0.80
2018-12-24T18:22:05.285Z,0.80
2018-12-24T18:24:35.434Z,0.80
2018-12-24T18:27:05.721Z,0.80
2018-12-24T18:29:36.078Z,0.80
2018-12-24T18:32:06.256Z,0.80
2018-12-24T18:34:36.650Z,0.80
2018-12-24T18:37:06.844Z,0.80
2018-12-24T18:39:37.259Z,0.80
2018-12-24T18:42:07.574Z,0.80
2018-12-24T18:44:37.974Z,0.80
2018-12-24T18:47:08.243Z,0.80
2018-12-24T18:49:38.583Z,0.80
2018-12-24T18:52:08.851Z,0.80
2018-12-24T18:54:39.237Z,0.80
2018-12-24T18:57:09.533Z,0.70
2018-12-24T18:59:39.730Z,0.70
2018-12-24T19:02:09.919Z,0.70
2018-12-24T19:04:40.958Z,0.60
2018-12-24T19:07:11.198Z,0.60
2018-12-24T19:09:41.369Z,0.60
2018-12-24T19:12:11.558Z,0.60
2018-12-24T19:14:42.039Z,0.60
2018-12-24T19:17:12.330Z,0.60
2018-12-24T19:19:42.588Z,0.60
2018-12-24T19:22:12.906Z,0.60
2018-12-24T19:24:43.217Z,0.50
2018-12-24T19:27:13.389Z,0.60
2018-12-24T19:29:43.561Z,0.50
2018-12-24T19:32:13.702Z,0.50
2018-12-24T19:34:44.005Z,0.50
2018-12-24T19:37:14.214Z,0.50
2018-12-24T19:39:44.359Z,0.60
2018-12-24T19:42:14.565Z,0.50
2018-12-24T19:44:44.789Z,0.50
2018-12-24T19:47:14.999Z,0.50
2018-12-24T19:49:45.214Z,0.50
2018-12-24T19:52:15.366Z,0.50
2018-12-24T19:54:45.606Z,0.50
2018-12-24T19:57:15.813Z,0.50
2018-12-24T19:59:46.507Z,0.50
2018-12-24T20:02:16.732Z,0.50
2018-12-24T20:04:47.182Z,0.50
2018-12-24T20:07:17.534Z,0.50
2018-12-24T20:09:47.755Z,0.50
2018-12-24T20:12:17.967Z,0.40
2018-12-24T20:14:48.715Z,0.40
2018-12-24T20:17:18.938Z,0.40
2018-12-24T20:19:49.149Z,0.40
2018-12-24T20:22:19.403Z,0.40
2018-12-24T20:24:49.621Z,0.40
2018-12-24T20:27:19.809Z,0.30
2018-12-24T20:29:49.982Z,0.30
2018-12-24T20:32:20.174Z,0.40
2018-12-24T20:34:50.413Z,0.30
2018-12-24T20:37:20.586Z,0.30
2018-12-24T20:39:50.795Z,0.20
2018-12-24T20:42:21.181Z,0.20
2018-12-24T20:44:51.459Z,0.20
2018-12-24T20:47:21.650Z,0.20
2018-12-24T20:49:51.985Z,0.20
2018-12-24T20:52:22.231Z,0.20
2018-12-24T20:54:52.475Z,0.20
2018-12-24T20:57:22.818Z,0.20
2018-12-24T20:59:53.126Z,0.20
2018-12-24T21:02:23.346Z,0.20
2018-12-24T21:04:53.586Z,0.20
2018-12-24T21:07:23.770Z,0.20
2018-12-24T21:09:54.071Z,0.20
2018-12-24T21:12:24.254Z,0.20
2018-12-24T21:14:54.477Z,0.20
2018-12-24T21:17:25.079Z,0.20
2018-12-24T21:19:55.324Z,0.20
2018-12-24T21:22:25.618Z,0.20
2018-12-24T21:24:55.817Z,0.20
2018-12-24T21:27:26.093Z,0.20
2018-12-24T21:29:56.435Z,0.20
2018-12-24T21:32:26.669Z,0.20
2018-12-24T21:34:56.915Z,0.20
2018-12-24T21:37:27.214Z,0.20
2018-12-24T21:39:57.542Z,0.20
2018-12-24T21:42:27.776Z,0.20
2018-12-24T21:44:58.001Z,0.20
2018-12-24T21:47:28.218Z,0.20
2018-12-24T21:49:58.474Z,0.20
2018-12-24T21:52:29.717Z,0.30
2018-12-24T21:54:59.990Z,0.30
2018-12-24T21:57:30.553Z,0.20
2018-12-24T22:00:00.912Z,0.20
2018-12-24T22:02:32.483Z,0.20
2018-12-24T22:05:02.842Z,0.20
2018-12-24T22:07:33.051Z,0.10
2018-12-24T22:10:03.337Z,0.10
2018-12-24T22:12:33.614Z,0.10
2018-12-24T22:15:03.838Z,0.10
2018-12-24T22:17:34.166Z,0.10
2018-12-24T22:20:04.484Z,0.10
2018-12-24T22:22:34.813Z,0.10
2018-12-24T22:25:04.979Z,0.10
2018-12-24T22:27:35.263Z,0.10
2018-12-24T22:30:06.050Z,0.00
2018-12-24T22:32:36.307Z,0.00
2018-12-24T22:35:06.509Z,0.00
2018-12-24T22:37:36.754Z,0.00
2018-12-24T22:40:07.221Z,0.00
2018-12-24T22:42:37.449Z,0.00
2018-12-24T22:45:07.602Z,-0.10
2018-12-24T22:47:37.917Z,-0.10
2018-12-24T22:50:08.163Z,-0.10
2018-12-24T22:52:38.403Z,-0.10
2018-12-24T22:55:08.754Z,-0.10
2018-12-24T22:57:39.263Z,-0.10
2018-12-24T23:00:13.062Z,-0.10
2018-12-24T23:02:44.918Z,-0.10
2018-12-24T23:05:15.211Z,-0.10
2018-12-24T23:07:45.415Z,-0.10
2018-12-24T23:10:15.597Z,-0.10
2018-12-24T23:12:45.886Z,-0.10
2018-12-24T23:15:16.077Z,-0.10
2018-12-24T23:17:46.394Z,-0.10
2018-12-24T23:20:16.600Z,-0.10
2018-12-24T23:22:46.954Z,-0.10
2018-12-24T23:25:17.194Z,-0.10
2018-12-24T23:27:47.589Z,-0.10
2018-12-24T23:30:17.938Z,-0.10
2018-12-24T23:32:48.226Z,-0.10
2018-12-24T23:35:18.392Z,-0.10
2018-12-24T23:37:48.733Z,-0.10
2018-12-24T23:40:18.882Z,-0.10
2018-12-24T23:42:49.170Z,-0.10
2018-12-24T23:45:19.451Z,-0.10
2018-12-24T23:47:49.726Z,-0.10
2018-12-24T23:50:19.943Z,-0.10
2018-12-24T23:52:50.116Z,-0.20
2018-12-24T23:55:20.425Z,-0.20
2018-12-24T23:57:50.611Z,-0.20
